Time;durP1;ratioP1;P1;durP2;ratioP2;P2;SDS_P1;SDS_P2;PMS_P1;PMS_P2;Temp;Humidity;BMP_temperature;BMP_pressure;BME280_temperature;BME280_humidity;BME280_pressure;Samples;Min_cycle;Max_cycle;Signal;HPM_P1;HPM_P2
2021/01/28 00:00:08;;;;;;;119.85;49.00;;;;;;;;;;1036082;28;20046;-92
2021/01/28 00:00:40;;;;;;;133.52;55.85;;;;;;;;;;1040419;28;20110;-91
2021/01/28 00:01:11;;;;;;;139.23;58.95;;;;;;;;;;1032245;28;20518;-92
2021/01/28 00:01:43;;;;;;;140.25;57.13;;;;;;;;;;1036329;28;20132;-92
2021/01/28 00:02:22;;;;;;;141.85;56.85;;;;;;;;;;1032092;28;20050;-91
2021/01/28 00:02:59;;;;;;;141.68;58.28;;;;;;;;;;1036423;28;20517;-92
2021/01/28 00:03:35;;;;;;;135.05;54.40;;;;;;;;;;1032231;28;20188;-92
2021/01/28 00:04:06;;;;;;;142.57;58.22;;;;;;;;;;1024341;28;20055;-91
2021/01/28 00:04:37;;;;;;;147.18;58.97;;;;;;;;;;1028133;28;20061;-92
2021/01/28 00:05:10;;;;;;;127.65;56.10;;;;;;;;;;1031898;28;20054;-92
2021/01/28 00:05:43;;;;;;;138.40;58.75;;;;;;;;;;1032309;28;20055;-92
2021/01/28 00:06:15;;;;;;;158.13;61.33;;;;;;;;;;1028209;28;20055;-92
2021/01/28 00:06:46;;;;;;;133.50;57.53;;;;;;;;;;1032062;28;20042;-92
2021/01/28 00:07:18;;;;;;;159.48;59.42;;;;;;;;;;1032246;28;20407;-92
2021/01/28 00:07:49;;;;;;;146.45;60.17;;;;;;;;;;1032187;28;20050;-92
2021/01/28 00:08:21;;;;;;;141.25;56.45;;;;;;;;;;1032652;28;20089;-92
2021/01/28 00:08:52;;;;;;;131.20;57.45;;;;;;;;;;1036176;28;20409;-93
2021/01/28 00:09:24;;;;;;;153.07;60.60;;;;;;;;;;1028286;28;20074;-93
2021/01/28 00:09:58;;;;;;;150.70;59.95;;;;;;;;;;1028056;28;20050;-93
2021/01/28 00:10:33;;;;;;;147.80;63.10;;;;;;;;;;1029052;28;20062;-92
2021/01/28 00:11:06;;;;;;;131.40;57.95;;;;;;;;;;1033586;28;20050;-92
2021/01/28 00:11:40;;;;;;;161.18;60.28;;;;;;;;;;1033662;28;20050;-92
2021/01/28 00:12:14;;;;;;;144.93;61.25;;;;;;;;;;1032572;28;20054;-92
2021/01/28 00:12:48;;;;;;;146.73;60.78;;;;;;;;;;1028129;28;20515;-93
2021/01/28 00:13:23;;;;;;;152.02;61.40;;;;;;;;;;1033485;28;20084;-94
2021/01/28 00:13:54;;;;;;;160.93;62.35;;;;;;;;;;1028236;28;20054;-93
2021/01/28 00:14:25;;;;;;;136.85;57.83;;;;;;;;;;1028361;28;20047;-94
2021/01/28 00:14:56;;;;;;;148.98;60.60;;;;;;;;;;1031982;28;20053;-94
2021/01/28 00:15:35;;;;;;;149.73;60.40;;;;;;;;;;1028198;28;20051;-94
2021/01/28 00:16:07;;;;;;;150.57;58.88;;;;;;;;;;1032259;28;20085;-93
2021/01/28 00:16:44;;;;;;;141.40;59.50;;;;;;;;;;1032188;28;20281;-92
2021/01/28 00:17:22;;;;;;;157.23;63.85;;;;;;;;;;1032496;28;20058;-93
2021/01/28 00:17:55;;;;;;;141.82;59.08;;;;;;;;;;1032186;28;20050;-92
2021/01/28 00:18:27;;;;;;;148.63;58.67;;;;;;;;;;1036426;28;20050;-93
2021/01/28 00:18:58;;;;;;;160.70;62.53;;;;;;;;;;1036357;28;20490;-93
2021/01/28 00:19:35;;;;;;;166.60;60.78;;;;;;;;;;1037510;28;20056;-93
2021/01/28 00:20:22;;;;;;;158.05;61.67;;;;;;;;;;1036304;28;20046;-94
2021/01/28 00:20:55;;;;;;;144.40;60.45;;;;;;;;;;1036029;28;20049;-93
2021/01/28 00:21:26;;;;;;;155.30;62.30;;;;;;;;;;1035806;28;20504;-92
2021/01/28 00:22:00;;;;;;;162.20;62.25;;;;;;;;;;1034806;28;20050;-93
2021/01/28 00:22:32;;;;;;;145.90;60.20;;;;;;;;;;1032747;28;20062;-93
2021/01/28 00:23:08;;;;;;;147.77;60.83;;;;;;;;;;1028505;28;20055;-93
2021/01/28 00:23:42;;;;;;;171.90;66.43;;;;;;;;;;1030487;28;20051;-92
2021/01/28 00:24:14;;;;;;;159.52;62.33;;;;;;;;;;1029640;28;20412;-91
2021/01/28 00:24:45;;;;;;;164.63;64.20;;;;;;;;;;1025831;28;20061;-93
2021/01/28 00:25:34;;;;;;;163.75;64.82;;;;;;;;;;1033601;28;20042;-93
2021/01/28 00:26:07;;;;;;;143.85;58.53;;;;;;;;;;1027878;28;20094;-91
2021/01/28 00:26:48;;;;;;;;;;;;;;;;;;;;;
2021/01/28 00:27:20;;;;;;;149.23;62.47;;;;;;;;;;1036671;28;20046;-93
2021/01/28 00:27:53;;;;;;;159.85;65.55;;;;;;;;;;1036295;28;20410;-92
2021/01/28 00:28:24;;;;;;;149.85;61.17;;;;;;;;;;1036155;28;20128;-92
2021/01/28 00:28:55;;;;;;;168.48;66.25;;;;;;;;;;1028279;28;20054;-93
2021/01/28 00:29:32;;;;;;;172.10;63.22;;;;;;;;;;1031940;28;20061;-93
2021/01/28 00:30:22;;;;;;;159.30;64.13;;;;;;;;;;1024494;29;20183;-93
2021/01/28 00:30:53;;;;;;;169.00;63.83;;;;;;;;;;1034073;28;20062;-93
2021/01/28 00:31:24;;;;;;;167.45;64.22;;;;;;;;;;1032280;28;20050;-92
2021/01/28 00:32:05;;;;;;;151.98;60.80;;;;;;;;;;1035435;28;20061;-92
2021/01/28 00:32:37;;;;;;;160.10;61.88;;;;;;;;;;1034580;28;20057;-93
2021/01/28 00:33:17;;;;;;;158.35;62.45;;;;;;;;;;1032070;28;20056;-92
2021/01/28 00:33:49;;;;;;;159.45;62.72;;;;;;;;;;1031047;28;20081;-93
2021/01/28 00:34:25;;;;;;;159.65;61.00;;;;;;;;;;1028033;28;20412;-93
2021/01/28 00:35:03;;;;;;;157.45;62.60;;;;;;;;;;1026642;28;20411;-93
2021/01/28 00:35:39;;;;;;;143.23;61.25;;;;;;;;;;1030234;28;20116;-93
2021/01/28 00:36:14;;;;;;;159.93;61.83;;;;;;;;;;1034724;28;20200;-93
2021/01/28 00:36:45;;;;;;;182.07;66.78;;;;;;;;;;1028175;28;20046;-93
2021/01/28 00:37:20;;;;;;;191.95;67.43;;;;;;;;;;1029707;28;20483;-93
2021/01/28 00:37:52;;;;;;;173.02;64.22;;;;;;;;;;1032205;28;20193;-93
2021/01/28 00:38:30;;;;;;;167.40;63.83;;;;;;;;;;1032143;28;20571;-92
2021/01/28 00:39:03;;;;;;;172.57;67.90;;;;;;;;;;1032155;28;20050;-93
2021/01/28 00:39:38;;;;;;;158.77;64.72;;;;;;;;;;1032116;28;20054;-92
2021/01/28 00:40:16;;;;;;;148.52;60.05;;;;;;;;;;1031919;28;20521;-93
2021/01/28 00:40:51;;;;;;;173.77;65.53;;;;;;;;;;1035936;28;20050;-93
2021/01/28 00:41:24;;;;;;;171.93;64.05;;;;;;;;;;1035940;28;20505;-93
2021/01/28 00:41:55;;;;;;;171.75;63.85;;;;;;;;;;1034148;28;20498;-93
2021/01/28 00:42:33;;;;;;;169.45;65.07;;;;;;;;;;1028123;28;20057;-93
2021/01/28 00:43:05;;;;;;;204.25;71.78;;;;;;;;;;1036210;28;20132;-93
2021/01/28 00:43:42;;;;;;;168.63;63.53;;;;;;;;;;1027368;28;20503;-93
2021/01/28 00:44:17;;;;;;;180.13;66.85;;;;;;;;;;1020300;29;20051;-93
2021/01/28 00:44:50;;;;;;;176.57;67.10;;;;;;;;;;1032147;28;20140;-94
2021/01/28 00:45:24;;;;;;;180.90;64.03;;;;;;;;;;1028213;28;20416;-93
2021/01/28 00:45:59;;;;;;;157.20;63.25;;;;;;;;;;1028204;28;20078;-92
2021/01/28 00:46:31;;;;;;;179.45;64.10;;;;;;;;;;1020012;29;20051;-93
2021/01/28 00:47:03;;;;;;;193.43;63.67;;;;;;;;;;1029824;28;20051;-94
2021/01/28 00:47:35;;;;;;;182.63;66.93;;;;;;;;;;1040297;28;20139;-92
2021/01/28 00:48:28;;;;;;;190.40;69.60;;;;;;;;;;1035507;28;20057;-93
2021/01/28 00:49:11;;;;;;;;;;;;;;;;;;;;;
2021/01/28 00:49:42;;;;;;;171.57;61.17;;;;;;;;;;1036192;28;20132;-93
2021/01/28 00:50:18;;;;;;;172.90;63.10;;;;;;;;;;1040342;28;20421;-92
2021/01/28 00:50:55;;;;;;;159.40;64.32;;;;;;;;;;1036552;28;20053;-93
2021/01/28 00:51:27;;;;;;;181.15;65.18;;;;;;;;;;1032040;28;20057;-93
2021/01/28 00:52:02;;;;;;;184.85;66.13;;;;;;;;;;1040073;28;20076;-93
2021/01/28 00:52:57;;;;;;;188.10;65.75;;;;;;;;;;1040132;28;20049;-93
2021/01/28 00:53:34;;;;;;;146.43;55.10;;;;;;;;;;1036327;28;20133;-93
2021/01/28 00:54:05;;;;;;;160.00;59.20;;;;;;;;;;1032728;28;20050;-92
2021/01/28 00:54:40;;;;;;;152.63;59.42;;;;;;;;;;1036124;28;20046;-93
2021/01/28 00:55:21;;;;;;;144.70;56.95;;;;;;;;;;1031874;28;20053;-94
2021/01/28 00:55:52;;;;;;;156.38;58.17;;;;;;;;;;1032128;28;20471;-93
2021/01/28 00:56:25;;;;;;;145.63;59.30;;;;;;;;;;1027963;28;20122;-91
2021/01/28 00:56:56;;;;;;;162.88;61.42;;;;;;;;;;1023890;29;20137;-91
2021/01/28 00:57:30;;;;;;;142.70;55.95;;;;;;;;;;1028109;28;20051;-93
2021/01/28 00:58:07;;;;;;;161.75;63.28;;;;;;;;;;1027882;28;20535;-92
2021/01/28 00:58:43;;;;;;;157.25;59.97;;;;;;;;;;1028046;28;20163;-94
2021/01/28 00:59:17;;;;;;;171.00;64.75;;;;;;;;;;1028132;28;20046;-94
2021/01/28 00:59:48;;;;;;;167.82;63.58;;;;;;;;;;1025607;28;20519;-93
2021/01/28 01:00:39;;;;;;;163.32;59.70;;;;;;;;;;1028107;28;20054;-93
2021/01/28 01:01:13;;;;;;;173.63;60.95;;;;;;;;;;1028233;28;20062;-93
2021/01/28 01:01:50;;;;;;;176.60;64.18;;;;;;;;;;1031071;28;20109;-93
2021/01/28 01:02:23;;;;;;;192.60;66.75;;;;;;;;;;1032290;28;20057;-93
2021/01/28 01:02:56;;;;;;;164.45;61.42;;;;;;;;;;1031943;28;20434;-92
2021/01/28 01:03:30;;;;;;;148.55;55.90;;;;;;;;;;1036659;28;20046;-94
2021/01/28 01:04:02;;;;;;;171.93;58.35;;;;;;;;;;1032130;28;20050;-93
2021/01/28 01:04:33;;;;;;;154.90;57.17;;;;;;;;;;1033241;28;20075;-93
2021/01/28 01:05:04;;;;;;;160.98;59.15;;;;;;;;;;1033462;28;20046;-93
2021/01/28 01:05:43;;;;;;;156.27;55.88;;;;;;;;;;1036889;28;20053;-94
2021/01/28 01:06:15;;;;;;;160.25;61.28;;;;;;;;;;1036397;28;20060;-92
2021/01/28 01:06:51;;;;;;;167.95;59.65;;;;;;;;;;1031900;28;20646;-93
2021/01/28 01:07:22;;;;;;;169.15;61.10;;;;;;;;;;1031984;28;20069;-92
2021/01/28 01:07:56;;;;;;;170.38;60.70;;;;;;;;;;1034794;28;20050;-93
2021/01/28 01:08:31;;;;;;;144.65;55.33;;;;;;;;;;1031810;28;20053;-93
2021/01/28 01:09:03;;;;;;;180.50;61.58;;;;;;;;;;1024375;29;20051;-92
2021/01/28 01:09:41;;;;;;;164.25;58.65;;;;;;;;;;1026003;28;20066;-94
2021/01/28 01:10:28;;;;;;;155.05;60.45;;;;;;;;;;1029135;28;20046;-93
2021/01/28 01:11:01;;;;;;;155.70;56.13;;;;;;;;;;1033025;28;20061;-92
2021/01/28 01:11:32;;;;;;;161.82;58.13;;;;;;;;;;1036236;28;20093;-92
2021/01/28 01:12:04;;;;;;;152.98;56.33;;;;;;;;;;1034932;28;20534;-93
2021/01/28 01:12:38;;;;;;;162.05;58.05;;;;;;;;;;1035699;28;20080;-92
2021/01/28 01:13:18;;;;;;;156.98;57.33;;;;;;;;;;1033009;28;20046;-93
2021/01/28 01:13:53;;;;;;;152.90;54.53;;;;;;;;;;1032722;28;20174;-92
2021/01/28 01:14:24;;;;;;;165.95;59.58;;;;;;;;;;1031950;28;20222;-93
2021/01/28 01:14:56;;;;;;;160.55;60.75;;;;;;;;;;1035999;28;20395;-93
2021/01/28 01:15:27;;;;;;;175.95;59.80;;;;;;;;;;1036072;28;20042;-92
2021/01/28 01:15:59;;;;;;;161.93;58.72;;;;;;;;;;1032062;28;20526;-92
2021/01/28 01:16:32;;;;;;;176.65;60.78;;;;;;;;;;1032266;28;20499;-92
2021/01/28 01:17:04;;;;;;;177.73;60.28;;;;;;;;;;1035195;28;20127;-92
2021/01/28 01:17:41;;;;;;;180.65;62.95;;;;;;;;;;1029818;28;20513;-93
2021/01/28 01:18:16;;;;;;;158.13;56.28;;;;;;;;;;1024172;29;20056;-93
2021/01/28 01:18:50;;;;;;;191.80;60.72;;;;;;;;;;1020173;29;20059;-93
2021/01/28 01:19:23;;;;;;;196.80;64.85;;;;;;;;;;1027619;28;20058;-93
2021/01/28 01:19:54;;;;;;;178.57;60.90;;;;;;;;;;1029387;28;20047;-93
2021/01/28 01:20:26;;;;;;;171.35;62.78;;;;;;;;;;1032887;28;20069;-93
2021/01/28 01:21:01;;;;;;;176.93;61.65;;;;;;;;;;1032530;28;20038;-92
2021/01/28 01:21:33;;;;;;;188.18;63.92;;;;;;;;;;1032645;28;20090;-93
2021/01/28 01:22:04;;;;;;;173.93;59.13;;;;;;;;;;1034038;28;20050;-93
2021/01/28 01:22:35;;;;;;;176.23;58.58;;;;;;;;;;1032846;28;20054;-93
2021/01/28 01:23:16;;;;;;;156.10;57.80;;;;;;;;;;1032945;28;20046;-92
2021/01/28 01:23:59;;;;;;;188.23;60.58;;;;;;;;;;1032943;28;20053;-92
2021/01/28 01:24:32;;;;;;;156.00;55.10;;;;;;;;;;1037106;28;20049;-92
2021/01/28 01:25:06;;;;;;;173.38;58.33;;;;;;;;;;1045203;28;20520;-93
2021/01/28 01:25:38;;;;;;;148.52;56.97;;;;;;;;;;1036786;28;20129;-92
2021/01/28 01:26:11;;;;;;;188.60;62.20;;;;;;;;;;1028702;28;20487;-92
2021/01/28 01:26:43;;;;;;;169.95;59.35;;;;;;;;;;1026286;28;20059;-92
2021/01/28 01:27:14;;;;;;;180.13;59.45;;;;;;;;;;1032311;28;20189;-93
2021/01/28 01:27:47;;;;;;;179.23;59.33;;;;;;;;;;1037753;28;20435;-93
2021/01/28 01:28:18;;;;;;;177.05;60.35;;;;;;;;;;1037605;28;20476;-95
2021/01/28 01:28:54;;;;;;;174.98;58.35;;;;;;;;;;1032851;28;20050;-93
2021/01/28 01:29:25;;;;;;;166.13;59.75;;;;;;;;;;1032999;28;20054;-93
2021/01/28 01:29:57;;;;;;;188.25;62.72;;;;;;;;;;1032927;28;20136;-93
2021/01/28 01:30:31;;;;;;;177.45;59.80;;;;;;;;;;1028754;28;20502;-92
2021/01/28 01:31:04;;;;;;;188.52;62.67;;;;;;;;;;1024698;28;20138;-93
2021/01/28 01:31:36;;;;;;;168.75;61.03;;;;;;;;;;1028921;28;20046;-93
2021/01/28 01:32:07;;;;;;;184.32;63.72;;;;;;;;;;1028951;28;20051;-93
2021/01/28 01:32:39;;;;;;;171.05;59.22;;;;;;;;;;1034625;28;20061;-92
2021/01/28 01:33:13;;;;;;;182.38;61.85;;;;;;;;;;1040848;28;20048;-92
2021/01/28 01:33:44;;;;;;;183.43;62.13;;;;;;;;;;1036167;28;20136;-92
2021/01/28 01:34:16;;;;;;;183.10;63.25;;;;;;;;;;1028655;28;20058;-92
2021/01/28 01:34:49;;;;;;;185.57;64.72;;;;;;;;;;1024935;29;20054;-93
2021/01/28 01:35:23;;;;;;;187.43;62.72;;;;;;;;;;1032819;28;20054;-92
2021/01/28 01:35:56;;;;;;;198.18;66.88;;;;;;;;;;1033520;28;20476;-93
2021/01/28 01:36:30;;;;;;;180.82;59.83;;;;;;;;;;1036735;28;20057;-92
2021/01/28 01:37:01;;;;;;;189.45;60.20;;;;;;;;;;1036913;28;20438;-93
2021/01/28 01:37:34;;;;;;;178.80;59.42;;;;;;;;;;1041174;28;20387;-92
2021/01/28 01:38:06;;;;;;;169.70;60.85;;;;;;;;;;1036998;28;20452;-93
2021/01/28 01:38:41;;;;;;;204.68;65.70;;;;;;;;;;1034780;28;20501;-93
2021/01/28 01:39:14;;;;;;;179.30;60.80;;;;;;;;;;1032795;28;20086;-93
2021/01/28 01:39:47;;;;;;;194.07;63.70;;;;;;;;;;1028996;28;20061;-93
2021/01/28 01:40:36;;;;;;;189.40;62.72;;;;;;;;;;1032784;28;20174;-93
2021/01/28 01:41:09;;;;;;;179.90;58.88;;;;;;;;;;1028535;28;20054;-92
2021/01/28 01:41:43;;;;;;;186.18;60.28;;;;;;;;;;1032823;28;20437;-92
2021/01/28 01:42:17;;;;;;;189.07;62.38;;;;;;;;;;1029047;28;20499;-93
2021/01/28 01:42:51;;;;;;;186.57;63.17;;;;;;;;;;1036822;28;20107;-91
2021/01/28 01:43:24;;;;;;;163.40;58.83;;;;;;;;;;1032651;28;20084;-91
2021/01/28 01:44:02;;;;;;;177.95;61.40;;;;;;;;;;1032763;28;20045;-93
2021/01/28 01:44:33;;;;;;;222.40;67.90;;;;;;;;;;1030635;28;20051;-93
2021/01/28 01:45:07;;;;;;;183.07;61.17;;;;;;;;;;1032895;28;20046;-92
2021/01/28 01:45:52;;;;;;;184.48;62.05;;;;;;;;;;1036846;28;20143;-93
2021/01/28 01:46:24;;;;;;;182.88;60.72;;;;;;;;;;1039387;28;20064;-93
2021/01/28 01:47:04;;;;;;;199.30;64.35;;;;;;;;;;1036772;28;20140;-91
2021/01/28 01:47:50;;;;;;;195.70;63.83;;;;;;;;;;1032896;28;20419;-93
2021/01/28 01:48:27;;;;;;;190.27;62.85;;;;;;;;;;1034550;28;20507;-93
2021/01/28 01:49:01;;;;;;;201.10;66.25;;;;;;;;;;1032831;28;20198;-92
2021/01/28 01:49:34;;;;;;;235.40;69.72;;;;;;;;;;1032736;28;20410;-93
2021/01/28 01:50:08;;;;;;;181.00;59.53;;;;;;;;;;1034194;28;20050;-93
2021/01/28 01:51:05;;;;;;;163.70;59.53;;;;;;;;;;1028659;28;20046;-92
2021/01/28 01:51:41;;;;;;;167.02;56.47;;;;;;;;;;1038280;28;20141;-93
2021/01/28 01:52:15;;;;;;;173.32;58.63;;;;;;;;;;1037576;28;20053;-92
2021/01/28 01:52:49;;;;;;;191.02;64.40;;;;;;;;;;1036980;28;20414;-93
2021/01/28 01:53:27;;;;;;;196.68;63.83;;;;;;;;;;1031379;28;20057;-92
2021/01/28 01:54:06;;;;;;;200.02;65.28;;;;;;;;;;1036919;28;20387;-92
2021/01/28 01:54:38;;;;;;;204.07;62.78;;;;;;;;;;1036623;28;20041;-93
2021/01/28 01:55:10;;;;;;;206.30;65.20;;;;;;;;;;1036913;28;20046;-92
2021/01/28 01:55:44;;;;;;;191.68;64.80;;;;;;;;;;1034150;28;20054;-92
2021/01/28 01:56:25;;;;;;;182.38;64.63;;;;;;;;;;1033052;28;20415;-93
2021/01/28 01:56:57;;;;;;;;;;;;;;;;;;1037168;28;20045;-93
2021/01/28 01:57:33;;;;;;;208.55;68.30;;;;;;;;;;1032558;28;19921;-93
2021/01/28 01:58:07;;;;;;;182.15;62.20;;;;;;;;;;1032842;28;20046;-93
2021/01/28 01:59:02;;;;;;;171.55;56.63;;;;;;;;;;1032883;28;20050;-92
2021/01/28 01:59:47;;;;;;;156.43;54.65;;;;;;;;;;1036702;28;20494;-93
2021/01/28 02:00:22;;;;;;;180.50;55.83;;;;;;;;;;1034568;28;20514;-92
2021/01/28 02:00:59;;;;;;;202.38;65.75;;;;;;;;;;1036685;28;20050;-92
2021/01/28 02:01:34;;;;;;;179.77;60.58;;;;;;;;;;1039750;28;20049;-93
2021/01/28 02:02:13;;;;;;;166.68;56.70;;;;;;;;;;1040888;28;20053;-92
2021/01/28 02:02:47;;;;;;;204.63;61.92;;;;;;;;;;1032645;28;20046;-92
2021/01/28 02:03:22;;;;;;;213.75;71.22;;;;;;;;;;1035080;28;20054;-93
2021/01/28 02:03:54;;;;;;;208.80;67.22;;;;;;;;;;1038933;28;20398;-94
2021/01/28 02:04:28;;;;;;;199.38;65.55;;;;;;;;;;1032565;28;20042;-93
2021/01/28 02:05:23;;;;;;;231.57;71.13;;;;;;;;;;1028592;28;20050;-93
2021/01/28 02:06:06;;;;;;;212.43;65.70;;;;;;;;;;1032666;28;20101;-93
2021/01/28 02:06:54;;;;;;;190.70;60.45;;;;;;;;;;1035394;28;20414;-93
2021/01/28 02:07:28;;;;;;;;;;;;;;;;;;1033638;28;20046;-92
2021/01/28 02:08:04;;;;;;;182.63;56.35;;;;;;;;;;1032678;28;19921;-92
2021/01/28 02:08:37;;;;;;;171.55;56.78;;;;;;;;;;1036430;28;20132;-92
2021/01/28 02:09:13;;;;;;;166.27;56.63;;;;;;;;;;1034851;28;20401;-92
2021/01/28 02:09:44;;;;;;;197.02;64.13;;;;;;;;;;1032704;28;20407;-92
2021/01/28 02:10:19;;;;;;;185.80;61.72;;;;;;;;;;1036489;28;20124;-93
2021/01/28 02:10:52;;;;;;;199.15;64.72;;;;;;;;;;1032813;28;20046;-92
2021/01/28 02:11:26;;;;;;;219.57;66.80;;;;;;;;;;1036737;28;20406;-92
2021/01/28 02:12:04;;;;;;;164.60;60.42;;;;;;;;;;1028150;28;20054;-92
2021/01/28 02:12:36;;;;;;;179.40;59.28;;;;;;;;;;1032494;28;20061;-92
2021/01/28 02:13:11;;;;;;;200.73;64.30;;;;;;;;;;1036603;28;20101;-93
2021/01/28 02:13:51;;;;;;;219.25;70.65;;;;;;;;;;1037124;28;20132;-91
2021/01/28 02:14:24;;;;;;;247.88;75.47;;;;;;;;;;1032487;28;20133;-92
2021/01/28 02:14:55;;;;;;;200.68;65.65;;;;;;;;;;1028671;28;20193;-91
2021/01/28 02:15:27;;;;;;;199.95;65.72;;;;;;;;;;1036835;28;20052;-92
2021/01/28 02:15:58;;;;;;;228.68;69.65;;;;;;;;;;1036951;28;20070;-92
2021/01/28 02:16:39;;;;;;;199.90;65.80;;;;;;;;;;1040517;28;20128;-92
2021/01/28 02:17:14;;;;;;;249.32;74.18;;;;;;;;;;1032871;28;20078;-92
2021/01/28 02:17:50;;;;;;;245.25;74.55;;;;;;;;;;1024680;29;20051;-92
2021/01/28 02:18:21;;;;;;;239.88;75.38;;;;;;;;;;1032800;28;20438;-92
2021/01/28 02:18:54;;;;;;;300.60;84.28;;;;;;;;;;1028914;28;20047;-92
2021/01/28 02:19:42;;;;;;;283.08;85.53;;;;;;;;;;1029837;28;20061;-92
2021/01/28 02:20:29;;;;;;;316.63;86.90;;;;;;;;;;1034440;28;20117;-93
2021/01/28 02:21:24;;;;;;;232.38;71.00;;;;;;;;;;1041433;28;20049;-93
2021/01/28 02:22:01;;;;;;;240.10;78.85;;;;;;;;;;1040984;28;20050;-93
2021/01/28 02:22:52;;;;;;;203.20;66.95;;;;;;;;;;1036719;28;20061;-93
2021/01/28 02:23:35;;;;;;;227.18;65.68;;;;;;;;;;1028655;28;20055;-92
2021/01/28 02:24:28;;;;;;;218.63;71.38;;;;;;;;;;1029198;28;20431;-93
2021/01/28 02:25:24;;;;;;;213.10;71.45;;;;;;;;;;1034219;28;20053;-92
2021/01/28 02:25:55;;;;;;;239.77;70.78;;;;;;;;;;1045542;28;20049;-92
2021/01/28 02:26:27;;;;;;;195.60;67.47;;;;;;;;;;1037539;28;20076;-92
2021/01/28 02:27:01;;;;;;;275.10;79.32;;;;;;;;;;1024412;28;20071;-92
2021/01/28 02:27:42;;;;;;;315.83;88.80;;;;;;;;;;1030722;28;20073;-93
2021/01/28 02:28:15;;;;;;;250.50;81.05;;;;;;;;;;1032613;28;20133;-92
2021/01/28 02:28:52;;;;;;;249.23;79.53;;;;;;;;;;1033281;28;20135;-91
2021/01/28 02:29:24;;;;;;;265.92;79.90;;;;;;;;;;1035442;28;20045;-91
2021/01/28 02:29:55;;;;;;;305.13;84.63;;;;;;;;;;1045030;28;20052;-92
2021/01/28 02:30:28;;;;;;;337.13;93.85;;;;;;;;;;1036821;28;20053;-92
2021/01/28 02:31:01;;;;;;;318.35;91.82;;;;;;;;;;1040697;28;20052;-93
2021/01/28 02:31:37;;;;;;;329.27;91.90;;;;;;;;;;1033129;28;20054;-93
2021/01/28 02:32:08;;;;;;;295.90;84.90;;;;;;;;;;1032865;28;20053;-92
2021/01/28 02:32:40;;;;;;;310.95;89.28;;;;;;;;;;1032647;28;20491;-93
2021/01/28 02:33:39;;;;;;;373.88;100.35;;;;;;;;;;1030277;28;20051;-93
2021/01/28 02:34:11;;;;;;;269.23;80.68;;;;;;;;;;1029984;28;20073;-92
2021/01/28 02:34:46;;;;;;;386.45;101.15;;;;;;;;;;1025270;28;20047;-92
2021/01/28 02:35:23;;;;;;;362.02;98.00;;;;;;;;;;1025113;28;20051;-92
2021/01/28 02:35:55;;;;;;;315.13;89.78;;;;;;;;;;1028851;28;20058;-92
2021/01/28 02:36:37;;;;;;;360.65;101.25;;;;;;;;;;1031216;28;20082;-91
2021/01/28 02:37:21;;;;;;;372.02;96.85;;;;;;;;;;1033592;28;20104;-91
2021/01/28 02:37:54;;;;;;;395.90;100.95;;;;;;;;;;1032246;28;20113;-92
2021/01/28 02:38:27;;;;;;;385.20;99.28;;;;;;;;;;1033087;28;20058;-92
2021/01/28 02:38:58;;;;;;;347.55;92.53;;;;;;;;;;1032511;28;20486;-91
2021/01/28 02:39:34;;;;;;;315.05;90.00;;;;;;;;;;1033835;28;20054;-92
2021/01/28 02:40:09;;;;;;;367.63;101.22;;;;;;;;;;1027455;28;20075;-93
2021/01/28 02:40:41;;;;;;;252.63;82.85;;;;;;;;;;1029005;28;20051;-93
2021/01/28 02:41:13;;;;;;;372.30;97.47;;;;;;;;;;1032983;28;20094;-93
2021/01/28 02:41:47;;;;;;;370.50;101.40;;;;;;;;;;1037327;28;20046;-93
2021/01/28 02:42:26;;;;;;;319.77;92.05;;;;;;;;;;1037440;28;20061;-93
2021/01/28 02:43:00;;;;;;;216.70;73.45;;;;;;;;;;1032625;28;20046;-92
2021/01/28 02:43:31;;;;;;;220.90;72.90;;;;;;;;;;1036968;28;20109;-93
2021/01/28 02:44:05;;;;;;;263.88;82.63;;;;;;;;;;1040807;28;20430;-92
2021/01/28 02:44:37;;;;;;;275.85;75.63;;;;;;;;;;1037166;28;20045;-91
2021/01/28 02:45:16;;;;;;;258.75;76.07;;;;;;;;;;1032922;28;20503;-92
2021/01/28 02:46:02;;;;;;;177.63;64.72;;;;;;;;;;1032865;28;20057;-92
2021/01/28 02:46:36;;;;;;;205.80;67.32;;;;;;;;;;1036971;28;20064;-92
2021/01/28 02:47:07;;;;;;;407.95;95.78;;;;;;;;;;1033131;28;20141;-92
2021/01/28 02:47:38;;;;;;;358.80;85.55;;;;;;;;;;1036887;28;20057;-93
2021/01/28 02:48:11;;;;;;;272.23;74.18;;;;;;;;;;1032645;28;20128;-93
2021/01/28 02:48:42;;;;;;;275.23;77.78;;;;;;;;;;1032595;28;20458;-92
2021/01/28 02:49:16;;;;;;;279.58;75.47;;;;;;;;;;1036998;28;20046;-93
2021/01/28 02:49:50;;;;;;;390.25;97.00;;;;;;;;;;1032473;28;20372;-92
2021/01/28 02:50:30;;;;;;;292.13;84.13;;;;;;;;;;1029502;28;20080;-92
2021/01/28 02:51:04;;;;;;;457.15;113.60;;;;;;;;;;1031100;28;20046;-93
2021/01/28 02:51:35;;;;;;;443.52;110.90;;;;;;;;;;1030795;28;20059;-92
2021/01/28 02:52:07;;;;;;;429.02;112.15;;;;;;;;;;1030668;28;20047;-93
2021/01/28 02:52:40;;;;;;;249.35;78.38;;;;;;;;;;1028675;28;20079;-92
2021/01/28 02:53:13;;;;;;;309.80;86.97;;;;;;;;;;1032663;28;20046;-92
2021/01/28 02:53:47;;;;;;;396.10;99.72;;;;;;;;;;1038650;28;20052;-91
2021/01/28 02:54:18;;;;;;;331.40;89.57;;;;;;;;;;1036618;28;20053;-92
2021/01/28 02:54:52;;;;;;;409.35;102.55;;;;;;;;;;1028688;28;20057;-92
2021/01/28 02:55:25;;;;;;;344.63;91.82;;;;;;;;;;1030149;28;20578;-92
2021/01/28 02:55:58;;;;;;;413.75;102.75;;;;;;;;;;1032401;28;20085;-91
2021/01/28 02:56:30;;;;;;;455.80;117.82;;;;;;;;;;1031340;28;20137;-93
2021/01/28 02:57:03;;;;;;;434.63;109.68;;;;;;;;;;1033541;28;20136;-92
2021/01/28 02:57:36;;;;;;;296.85;88.45;;;;;;;;;;1035635;28;20434;-93
2021/01/28 02:58:07;;;;;;;451.08;114.05;;;;;;;;;;1034999;28;20057;-92
2021/01/28 02:58:41;;;;;;;254.73;83.05;;;;;;;;;;1040672;28;20057;-91
2021/01/28 02:59:13;;;;;;;421.52;107.45;;;;;;;;;;1028369;28;20050;-93
2021/01/28 02:59:49;;;;;;;351.80;97.00;;;;;;;;;;1031324;28;20047;-93
2021/01/28 03:00:33;;;;;;;409.75;109.80;;;;;;;;;;1036576;28;20415;-92
2021/01/28 03:01:06;;;;;;;;;;;;;;;;;;1033170;28;20176;-93
2021/01/28 03:01:40;;;;;;;421.02;107.57;;;;;;;;;;1036407;28;19921;-93
2021/01/28 03:02:18;;;;;;;469.30;116.53;;;;;;;;;;1036557;28;20045;-93
2021/01/28 03:02:52;;;;;;;406.20;106.50;;;;;;;;;;1032365;28;20509;-94
2021/01/28 03:03:23;;;;;;;462.75;112.22;;;;;;;;;;1032143;28;20120;-94
2021/01/28 03:03:55;;;;;;;394.63;103.35;;;;;;;;;;1036696;28;20050;-93
2021/01/28 03:04:30;;;;;;;396.92;107.97;;;;;;;;;;1032504;28;20047;-94
2021/01/28 03:05:03;;;;;;;429.30;108.25;;;;;;;;;;1031183;28;20051;-94
2021/01/28 03:05:35;;;;;;;494.40;122.30;;;;;;;;;;1032005;28;20050;-91
2021/01/28 03:06:09;;;;;;;335.33;97.38;;;;;;;;;;1028348;28;20054;-94
2021/01/28 03:06:41;;;;;;;438.00;116.88;;;;;;;;;;1036192;28;20049;-93
2021/01/28 03:07:16;;;;;;;451.50;116.55;;;;;;;;;;1036457;28;20045;-94
2021/01/28 03:07:50;;;;;;;497.92;122.25;;;;;;;;;;1032507;28;20046;-94
2021/01/28 03:08:23;;;;;;;500.27;121.45;;;;;;;;;;1030482;28;20136;-93
2021/01/28 03:08:55;;;;;;;475.27;115.45;;;;;;;;;;1036263;28;20561;-93
2021/01/28 03:09:26;;;;;;;316.65;92.75;;;;;;;;;;1038873;28;20056;-91
2021/01/28 03:09:58;;;;;;;558.10;132.02;;;;;;;;;;1033981;28;20184;-93
2021/01/28 03:10:34;;;;;;;518.97;127.70;;;;;;;;;;1032826;28;20054;-91
2021/01/28 03:11:07;;;;;;;328.60;98.30;;;;;;;;;;1032272;28;20054;-93
2021/01/28 03:11:42;;;;;;;550.67;132.50;;;;;;;;;;1036558;28;20093;-93
2021/01/28 03:12:14;;;;;;;451.13;113.18;;;;;;;;;;1032498;28;20050;-92
2021/01/28 03:12:48;;;;;;;481.52;123.22;;;;;;;;;;1032586;28;20129;-92
2021/01/28 03:13:20;;;;;;;314.67;97.43;;;;;;;;;;1036292;28;20061;-92
2021/01/28 03:13:52;;;;;;;317.55;97.50;;;;;;;;;;1036344;28;20081;-93
2021/01/28 03:14:25;;;;;;;406.13;106.75;;;;;;;;;;1040516;28;20050;-94
2021/01/28 03:14:59;;;;;;;389.70;102.60;;;;;;;;;;1032499;28;20474;-92
2021/01/28 03:15:31;;;;;;;454.17;115.00;;;;;;;;;;1024505;29;20058;-92
2021/01/28 03:16:03;;;;;;;324.48;90.28;;;;;;;;;;1036440;28;20041;-93
2021/01/28 03:16:34;;;;;;;344.00;98.30;;;;;;;;;;1036413;28;20060;-93
2021/01/28 03:17:06;;;;;;;527.78;131.45;;;;;;;;;;1036348;28;20046;-93
2021/01/28 03:17:38;;;;;;;610.47;142.45;;;;;;;;;;1036354;28;20052;-93
2021/01/28 03:18:15;;;;;;;440.95;110.57;;;;;;;;;;1036783;28;20065;-92
2021/01/28 03:18:48;;;;;;;420.55;108.15;;;;;;;;;;1032352;28;20085;-93
2021/01/28 03:19:20;;;;;;;419.50;106.57;;;;;;;;;;1024292;28;20117;-91
2021/01/28 03:19:58;;;;;;;509.48;120.93;;;;;;;;;;1028576;28;20504;-93
2021/01/28 03:20:29;;;;;;;465.23;115.72;;;;;;;;;;1029331;28;20051;-93
2021/01/28 03:21:01;;;;;;;512.53;128.27;;;;;;;;;;1032122;28;20051;-92